Flight Track Log - Related Links

Times and Time Zones

All times are in EDT time to prevent confusion due to time zone crossing. See the AWE754 flight status page for this flight to view local times or setup timezone preferences in your user account.

Time Position Orientation Groundspeed Altitude Reporting Facility
EDT Latitude Longitude Course Direction KTS MPH feet Rate Location/Type
Sun 08:00:49 PM 39.8455 -75.2944 212° Southwest 163 188 1,800  Level FlightAware ADS-B
Sun 08:01:05 PM 39.8351 -75.3026 211° Southwest 179 206 2,100 909 Climbing FlightAware ADS-B
Sun 08:01:22 PM 39.8218 -75.3131 211° Southwest 204 235 2,300 1,273 Climbing FlightAware ADS-B
Sun 08:01:38 PM 39.8085 -75.3238 212° Southwest 220 253 2,800 2,129 Climbing FlightAware ADS-B
Sun 08:01:53 PM 39.7949 -75.3344 211° Southwest 230 265 3,400 2,471 Climbing FlightAware ADS-B
Sun 08:02:12 PM 39.7771 -75.3483 211° Southwest 237 273 4,200 2,545 Climbing FlightAware ADS-B
Sun 08:02:26 PM 39.7643 -75.3583 211° Southwest 244 281 4,800 2,824 Climbing FlightAware ADS-B
Sun 08:02:29 PM 39.7607 -75.3605 205° Southwest 247 284 5,000 2,571 Climbing FlightAware ADS-B
Sun 08:02:33 PM 39.7569 -75.3622 199° South 253 291 5,100 2,250 Climbing FlightAware ADS-B
Sun 08:02:37 PM 39.7514 -75.3637 192° South 259 298 5,300 2,667 Climbing FlightAware ADS-B
Sun 08:02:42 PM 39.7459 -75.3641 183° South 266 306 5,500 2,667 Climbing FlightAware ADS-B
Sun 08:02:46 PM 39.7409 -75.3636 176° South 270 311 5,700 2,667 Climbing FlightAware ADS-B
Sun 08:02:51 PM 39.7349 -75.3618 167° South 275 316 5,900 2,250 Climbing FlightAware ADS-B
Sun 08:02:54 PM 39.7313 -75.3599 158° South 279 321 6,000 3,000 Climbing FlightAware ADS-B
Sun 08:02:57 PM 39.7277 -75.3577 155° Southeast 281 323 6,200 3,000 Climbing FlightAware ADS-B
Sun 08:03:04 PM 39.7202 -75.3509 145° Southeast 286 329 6,500 2,400 Climbing FlightAware ADS-B
Sun 08:03:07 PM 39.7173 -75.3473 136° Southeast 287 330 6,600 3,000 Climbing FlightAware ADS-B
Sun 08:03:14 PM 39.7116 -75.3378 128° Southeast 290 334 7,000 2,727 Climbing FlightAware ADS-B
Sun 08:03:18 PM 39.7092 -75.3319 118° Southeast 291 335 7,100 2,571 Climbing FlightAware ADS-B
Sun 08:03:21 PM 39.7074 -75.3262 112° Southeast 291 335 7,300 3,000 Climbing FlightAware ADS-B
Sun 08:03:26 PM 39.7058 -75.3180 104° East 291 335 7,500 2,400 Climbing FlightAware ADS-B
Sun 08:03:31 PM 39.7051 -75.3090 96° East 293 337 7,700 2,250 Climbing FlightAware ADS-B
Sun 08:03:34 PM 39.7052 -75.3038 89° East 294 338 7,800 1,714 Climbing FlightAware ADS-B
Sun 08:03:38 PM 39.7059 -75.2965 83° East 295 339 7,900 1,800 Climbing FlightAware ADS-B
Sun 08:03:54 PM 39.7104 -75.2691 78° East 304 350 8,400 2,323 Climbing FlightAware ADS-B
Sun 08:04:09 PM 39.7152 -75.2413 77° East 307 353 9,100 2,769 Climbing FlightAware ADS-B
Sun 08:04:20 PM 39.7182 -75.2228 78° East 311 358 9,600 2,049 Climbing FlightAware ADS-B
Sun 08:04:50 PM 39.7269 -75.1661 79° East 331 381 10,500 1,475 Climbing FlightAware ADS-B
Sun 08:05:21 PM 39.7368 -75.1011 79° East 370 426 11,100 1,031 Climbing FlightAware ADS-B
Sun 08:05:54 PM 39.7480 -75.0263 79° East 404 465 11,600 938 Climbing FlightAware ADS-B
Sun 08:06:25 PM 39.7592 -74.9517 79° East 416 479 12,100 492 Climbing FlightAware ADS-B
Sun 08:06:55 PM 39.7702 -74.8777 79° East 416 479 12,100 800 Level FlightAware ADS-B
Sun 08:07:25 PM 39.7813 -74.8030 79° East 414 476 12,900 2,900 Climbing FlightAware ADS-B
Sun 08:07:55 PM 39.7917 -74.7320 79° East 393 452 15,000 2,754 Climbing FlightAware ADS-B
Sun 08:08:26 PM 39.7988 -74.6588 83° East 415 478 15,700 1,180 Climbing FlightAware ADS-B
Sun 08:08:56 PM 39.8052 -74.5817 84° East 442 509 16,200 1,355 Climbing FlightAware ADS-B
Sun 08:09:28 PM 39.8124 -74.4951 84° East 455 524 17,100 1,787 Climbing FlightAware ADS-B
Sun 08:09:43 PM 39.8162 -74.4546 83° East 458 527 17,600 2,000 Climbing FlightAware ADS-B
Sun 08:09:55 PM 39.8234 -74.4233 73° East 456 525 18,000 1,909 Climbing FlightAware ADS-B
Sun 08:10:27 PM 39.8530 -74.3441 64° Northeast 462 532 19,000 1,905 Climbing FlightAware ADS-B
Sun 08:10:58 PM 39.8810 -74.2650 65° Northeast 471 542 20,000 1,714 Climbing FlightAware ADS-B
Sun 08:11:30 PM 39.9103 -74.1827 65° Northeast 481 554 20,800 1,524 Climbing FlightAware ADS-B
Sun 08:12:01 PM 39.9396 -74.0998 65° Northeast 490 564 21,600 1,645 Climbing FlightAware ADS-B
Sun 08:12:32 PM 39.9696 -74.0153 65° Northeast 495 570 22,500 1,742 Climbing FlightAware ADS-B
Sun 08:13:03 PM 39.9990 -73.9319 65° Northeast 500 575 23,400 1,574 Climbing FlightAware ADS-B
Sun 08:13:33 PM 40.0280 -73.8488 65° Northeast 507 583 24,100 1,279 Climbing FlightAware ADS-B
Sun 08:14:04 PM 40.0588 -73.7608 65° Northeast 514 592 24,700 1,108 Climbing FlightAware ADS-B
Sun 08:14:38 PM 40.0930 -73.6629 65° Northeast 526 605 25,300 1,200 Climbing FlightAware ADS-B
Sun 08:15:09 PM 40.1220 -73.5790 66° East 529 609 26,000 1,500 Climbing FlightAware ADS-B
Sun 08:15:14 PM 40.1285 -73.5608 65° Northeast 529 609 26,200 1,421 Climbing FlightAware ADS-B
Sun 08:15:47 PM 40.1622 -73.4636 66° East 535 616 26,900 1,219 Climbing FlightAware ADS-B
Sun 08:16:18 PM 40.1935 -73.3731 66° East 539 620 27,500 1,143 Climbing FlightAware ADS-B
Sun 08:16:50 PM 40.2262 -73.2776 66° East 543 625 28,100 1,355 Climbing FlightAware ADS-B
Sun 08:17:20 PM 40.2571 -73.1877 66° East 543 625 28,900 1,400 Climbing FlightAware ADS-B
Sun 08:17:50 PM 40.2886 -73.0961 66° East 545 627 29,500 1,279 Climbing FlightAware ADS-B
Sun 08:18:21 PM 40.3200 -73.0045 66° East 547 629 30,200 1,377 Climbing FlightAware ADS-B
Sun 08:18:51 PM 40.3508 -72.9141 66° East 547 629 30,900 1,300 Climbing FlightAware ADS-B
Sun 08:19:21 PM 40.3823 -72.8213 66° East 547 629 31,500 1,143 Climbing FlightAware ADS-B
Sun 08:19:54 PM 40.4155 -72.7230 66° East 545 627 32,100 1,313 Climbing FlightAware ADS-B
Sun 08:20:25 PM 40.4472 -72.6289 66° East 542 624 32,900 831 Climbing FlightAware ADS-B
Sun 08:20:59 PM 40.4814 -72.5274 66° East 538 619 33,000 441 Climbing FlightAware ADS-B
Sun 08:21:33 PM 40.5150 -72.4271 66° East 541 623 33,400 1,108 Climbing FlightAware ADS-B
Sun 08:22:04 PM 40.5465 -72.3325 66° East 536 617 34,200 1,558 Climbing FlightAware ADS-B
Sun 08:22:50 PM 40.5910 -72.1980 66° East 525 604 35,400 1,500 Climbing FlightAware ADS-B
Sun 08:23:00 PM 40.6008 -72.1689 66° East 527 606 35,600 955 Climbing FlightAware ADS-B
Sun 08:23:34 PM 40.6333 -72.0693 67° East 523 602 36,100 844 Climbing FlightAware ADS-B
Sun 08:24:04 PM 40.6624 -71.9809 67° East 525 604 36,500 762 Climbing FlightAware ADS-B
Sun 08:24:37 PM 40.6944 -71.8834 67° East 526 605 36,900 385 Climbing FlightAware ADS-B
Sun 08:25:22 PM 40.7375 -71.7514 67° East 532 612 37,000 78 Climbing FlightAware ADS-B
Sun 08:25:54 PM 40.7688 -71.6554 67° East 532 612 37,000  Level FlightAware ADS-B
Sun 08:26:32 PM 40.8051 -71.5432 67° East 531 611 37,000  Level FlightAware ADS-B
Sun 08:27:23 PM 40.8553 -71.3940 66° East 526 605 37,000  Level FlightAware ADS-B
Sun 08:27:47 PM 40.8864 -71.3302 57° Northeast 521 600 37,000  Level FlightAware ADS-B
Sun 08:28:21 PM 40.9340 -71.2560 50° Northeast 516 594 37,000  Level FlightAware ADS-B
Sun 08:29:01 PM 40.9950 -71.1630 49° Northeast 516 594 37,000  Level FlightAware ADS-B
Sun 08:29:51 PM 41.0770 -71.0380 49° Northeast 518 596 37,000  Level FlightAware ADS-B
Sun 08:30:31 PM 41.1400 -70.9420 49° Northeast 521 600 37,000  Level FlightAware ADS-B
Sun 08:31:26 PM 41.2220 -70.8170 49° Northeast 517 595 37,000  Level FlightAware ADS-B
Sun 08:32:06 PM 41.2920 -70.7110 49° Northeast 519 597 37,000  Level FlightAware ADS-B
Sun 08:32:46 PM 41.3450 -70.6280 50° Northeast 524 603 37,000  Level FlightAware ADS-B
Sun 08:33:26 PM 41.4120 -70.5250 49° Northeast 524 603 37,000  Level FlightAware ADS-B
Sun 08:34:11 PM 41.4880 -70.4070 49° Northeast 524 603 37,000  Level FlightAware ADS-B
Sun 08:34:59 PM 41.5550 -70.3050 49° Northeast 524 603 37,000  Level FlightAware ADS-B
Sun 08:35:47 PM 41.5920 -70.2460 50° Northeast 37,000  Level FlightAware ADS-B
Sun 08:36:46 PM 41.7330 -70.0260 49° Northeast 524 603 37,000  Level FlightAware ADS-B
Sun 08:37:26 PM 41.7910 -69.9340 50° Northeast 528 608 37,000  Level FlightAware ADS-B
Sun 08:38:10 PM 41.8630 -69.8210 49° Northeast 527 606 37,000  Level FlightAware ADS-B
Sun 08:38:51 PM 41.9310 -69.7130 50° Northeast 528 608 37,000  Level FlightAware ADS-B
Sun 08:39:31 PM 41.9940 -69.6140 49° Northeast 529 609 37,000  Level FlightAware ADS-B
Sun 08:40:11 PM 42.0540 -69.5170 50° Northeast 531 611 37,000  Level FlightAware ADS-B
Sun 08:41:01 PM 42.1370 -69.3840 50° Northeast 533 613 37,000  Level FlightAware ADS-B
Sun 08:41:41 PM 42.2000 -69.2830 50° Northeast 533 613 37,000  Level FlightAware ADS-B
Sun 08:42:21 PM 42.2620 -69.1830 50° Northeast 533 613 37,000  Level FlightAware ADS-B
Sun 08:43:20 PM 42.3520 -69.0380 50° Northeast 534 615 37,000  Level FlightAware ADS-B
Sun 08:44:01 PM 42.4150 -68.9350 50° Northeast 534 615 37,000  Level FlightAware ADS-B
Sun 08:45:11 PM 42.5300 -68.7470 50° Northeast 534 615 37,000  Level FlightAware ADS-B
Sun 08:46:25 PM 42.6310 -68.5830 50° Northeast 534 615 37,000  Level FlightAware ADS-B
Sun 08:47:01 PM 42.6790 -68.5050 50° Northeast 534 615 37,000  Level FlightAware ADS-B
Sun 08:47:50 PM 42.7450 -68.3970 50° Northeast 534 615 37,000  Level FlightAware ADS-B
Sun 08:48:26 PM 42.7940 -68.3180 50° Northeast 534 615 37,000  Level FlightAware ADS-B
Sun 08:49:14 PM 42.8590 -68.2130 50° Northeast 534 615 37,000  Level FlightAware ADS-B
Sun 08:49:50 PM 42.9070 -68.1340 50° Northeast 534 615 37,000  Level FlightAware ADS-B
Sun 08:50:35 PM 43.0400 -67.9000 52° Northeast 537 618 37,000  Level FlightAware ADS-B
Sun 08:51:26 PM 43.1160 -67.7700 51° Northeast 537 618 37,000  Level FlightAware ADS-B
Sun 08:52:10 PM 43.1880 -67.6490 51° Northeast 537 618 37,000  Level FlightAware ADS-B
Sun 08:53:10 PM 43.2820 -67.4890 51° Northeast 537 618 37,000  Level FlightAware ADS-B
Sun 08:53:46 PM 43.3360 -67.3950 52° Northeast 538 619 37,000  Level FlightAware ADS-B
Sun 08:54:30 PM 43.4060 -67.2750 51° Northeast 540 621 37,000  Level FlightAware ADS-B
Sun 08:55:11 PM 43.4690 -67.1660 51° Northeast 541 623 37,000  Level FlightAware ADS-B
Sun 08:55:55 PM 43.5370 -67.0480 51° Northeast 537 618 37,000  Level FlightAware ADS-B
Sun 08:56:40 PM 43.6000 -66.9190 56° Northeast 546 628 37,000  Level FlightAware ADS-B
Sun 08:57:20 PM 43.6510 -66.8000 59° Northeast 546 628 37,000  Level FlightAware ADS-B
Sun 08:58:05 PM 43.7090 -66.6660 59° Northeast 544 626 37,000  Level FlightAware ADS-B
Sun 08:58:41 PM 43.7520 -66.5650 59° Northeast 545 627 37,000  Level FlightAware ADS-B
Sun 08:59:25 PM 43.8100 -66.4280 60° Northeast 545 627 37,000  Level FlightAware ADS-B
Sun 09:00:06 PM 43.8640 -66.3010 59° Northeast 546 628 37,000  Level FlightAware ADS-B
Sun 09:00:45 PM 43.9140 -66.1810 60° Northeast 546 628 37,000  Level FlightAware ADS-B
Sun 09:01:30 PM 43.9710 -66.0460 60° Northeast 545 627 37,000  Level FlightAware ADS-B
Sun 09:02:16 PM 44.0270 -65.9100 60° Northeast 546 628 37,000  Level FlightAware ADS-B
Sun 09:02:55 PM 44.0750 -65.7960 60° Northeast 547 629 37,000  Level FlightAware ADS-B
Sun 09:03:36 PM 44.1240 -65.6780 60° Northeast 546 628 37,000  Level FlightAware ADS-B
Sun 09:04:15 PM 44.1780 -65.5470 60° Northeast 546 628 37,000  Level FlightAware ADS-B
Sun 09:05:04 PM 44.2310 -65.4170 60° Northeast 546 628 37,000  Level FlightAware ADS-B
Sun 09:05:45 PM 44.2910 -65.2690 60° Northeast 548 631 37,000  Level FlightAware ADS-B
Sun 09:06:28 PM 44.3460 -65.1340 60° Northeast 548 631 37,000  Level FlightAware ADS-B
Sun 09:07:07 PM 44.3930 -65.0190 60° Northeast 550 633 37,000  Level FlightAware ADS-B
Sun 09:07:52 PM 44.4500 -64.8770 61° Northeast 549 632 37,000  Level FlightAware ADS-B
Sun 09:08:32 PM 44.5010 -64.7510 60° Northeast 548 631 37,000  Level FlightAware ADS-B
Sun 09:09:14 PM 44.5520 -64.6210 61° Northeast 548 631 37,000  Level FlightAware ADS-B
Sun 09:09:58 PM 44.6050 -64.4890 61° Northeast 547 629 37,000  Level FlightAware ADS-B
Sun 09:10:39 PM 44.6550 -64.3620 61° Northeast 548 631 37,000  Level FlightAware ADS-B
Sun 09:11:22 PM 44.7080 -64.2270 61° Northeast 548 631 37,000  Level FlightAware ADS-B
Sun 09:11:58 PM 44.7510 -64.1180 61° Northeast 549 632 37,000  Level FlightAware ADS-B
Sun 09:12:40 PM 44.8040 -63.9810 61° Northeast 550 633 37,000  Level FlightAware ADS-B
Sun 09:13:24 PM 44.8570 -63.8460 61° Northeast 552 635 37,000  Level FlightAware ADS-B
Sun 09:14:09 PM 44.9070 -63.7150 62° Northeast 553 636 37,000  Level FlightAware ADS-B
Sun 09:15:03 PM 44.9740 -63.5400 62° Northeast 553 636 37,000  Level FlightAware ADS-B
Sun 09:15:45 PM 45.0260 -63.4050 61° Northeast 553 636 37,000  Level FlightAware ADS-B
Sun 09:16:59 PM 45.1040 -63.1970 62° Northeast 554 638 37,000  Level FlightAware ADS-B
Sun 09:17:34 PM 45.1400 -63.1020 62° Northeast 554 638 37,000  Level FlightAware ADS-B
Sun 09:18:16 PM 45.1920 -62.9660 61° Northeast 556 640 37,000  Level FlightAware ADS-B
Sun 09:18:55 PM 45.2320 -62.8590 62° Northeast 556 640 37,000  Level FlightAware ADS-B
Sun 09:19:43 PM 45.2810 -62.7270 62° Northeast 556 640 37,000  Level FlightAware ADS-B
Sun 09:20:19 PM 45.3180 -62.6280 62° Northeast 556 640 37,000  Level FlightAware ADS-B
Sun 09:21:06 PM 45.3660 -62.4990 62° Northeast 556 640 37,000  Level FlightAware ADS-B
Sun 09:21:44 PM 45.4050 -62.3950 62° Northeast 556 640 37,000  Level FlightAware ADS-B
Sun 09:22:32 PM 45.4540 -62.2630 62° Northeast 556 640 37,000  Level FlightAware ADS-B
Sun 09:23:08 PM 45.4910 -62.1640 62° Northeast 556 640 37,000  Level FlightAware ADS-B
Sun 09:23:57 PM 45.5420 -62.0290 62° Northeast 556 640 37,000  Level FlightAware ADS-B
Sun 09:24:32 PM 45.5780 -61.9320 62° Northeast 556 640 37,000  Level FlightAware ADS-B
Sun 09:25:20 PM 45.6270 -61.8000 62° Northeast 556 640 37,000  Level FlightAware ADS-B
Sun 09:25:57 PM 45.6650 -61.6970 62° Northeast 556 640 37,000  Level FlightAware ADS-B
Sun 09:26:43 PM 45.7120 -61.5700 62° Northeast 556 640 37,000  Level FlightAware ADS-B
Sun 09:27:26 PM 45.8580 -61.1270 65° Northeast 556 640 37,000  Level FlightAware ADS-B
Sun 09:28:09 PM 45.9080 -60.9850 63° Northeast 556 640 37,000  Level FlightAware ADS-B
Sun 09:28:49 PM 45.9550 -60.8500 63° Northeast 557 641 37,000  Level FlightAware ADS-B
Sun 09:29:33 PM 46.0060 -60.7030 63° Northeast 558 642 37,000  Level FlightAware ADS-B
Sun 09:30:13 PM 46.0510 -60.5700 64° Northeast 558 642 37,000  Level FlightAware ADS-B
Sun 09:30:55 PM 46.0980 -60.4320 64° Northeast 558 642 37,000  Level FlightAware ADS-B
Sun 09:31:40 PM 46.1480 -60.2850 64° Northeast 558 642 37,000  Level FlightAware ADS-B
Sun 09:32:20 PM 46.1890 -60.1640 64° Northeast 559 643 37,000  Level FlightAware ADS-B
Sun 09:33:03 PM 46.2430 -60.0050 64° Northeast 558 642 37,000  Level FlightAware ADS-B
Sun 09:33:47 PM 46.2920 -59.8590 64° Northeast 558 642 37,000  Level FlightAware ADS-B
Sun 09:34:29 PM 46.3390 -59.7170 64° Northeast 557 641 37,000  Level FlightAware ADS-B
Sun 09:35:09 PM 46.3840 -59.5810 64° Northeast 557 641 37,000  Level FlightAware ADS-B
Sun 09:35:49 PM 46.4280 -59.4490 64° Northeast 555 639 37,000  Level FlightAware ADS-B
Sun 09:36:29 PM 46.4710 -59.3170 65° Northeast 553 636 37,000  Level FlightAware ADS-B
Sun 09:37:15 PM 46.5220 -59.1600 65° Northeast 551 634 37,000  Level FlightAware ADS-B
Sun 09:37:55 PM 46.5640 -59.0290 65° Northeast 549 632 37,000  Level FlightAware ADS-B
Sun 09:38:41 PM 46.6140 -58.8750 65° Northeast 550 633 37,000  Level FlightAware ADS-B
Sun 09:39:21 PM 46.6570 -58.7430 65° Northeast 551 634 37,000  Level FlightAware ADS-B
Sun 09:40:05 PM 46.7040 -58.5930 65° Northeast 550 633 37,000  Level FlightAware ADS-B
Sun 09:40:45 PM 46.7480 -58.4560 65° Northeast 550 633 37,000  Level FlightAware ADS-B
Sun 09:41:20 PM 46.7800 -58.3550 65° Northeast 549 632 37,000  Level FlightAware ADS-B
Sun 09:42:09 PM 46.8350 -58.1780 66° East 545 627 37,000  Level FlightAware ADS-B
Sun 09:42:51 PM 46.8790 -58.0370 65° Northeast 544 626 37,000  Level FlightAware ADS-B
Sun 09:43:35 PM 46.9250 -57.8880 66° East 544 626 37,000  Level FlightAware ADS-B
Sun 09:44:15 PM 46.9650 -57.7580 66° East 543 625 37,000 146 Level FlightAware ADS-B
Sun 09:44:57 PM 47.0090 -57.6150 66° East 535 616 37,200 148 Climbing FlightAware ADS-B
Sun 09:45:36 PM 47.0440 -57.5040 65° Northeast 535 616 37,200 651 Level FlightAware ADS-B
Sun 09:46:20 PM 47.0910 -57.3470 66° East 522 601 38,100 886 Climbing FlightAware ADS-B
Sun 09:47:04 PM 47.1350 -57.2010 66° East 526 605 38,500 242 Climbing FlightAware ADS-B
Sun 09:47:59 PM 47.1810 -57.0490 66° East 526 605 38,500 212 Level FlightAware ADS-B
Sun 09:48:57 PM 47.2410 -56.8450 67° East 539 620 38,900 396 Climbing FlightAware ADS-B
Sun 09:49:45 PM 47.2890 -56.6830 66° East 544 626 39,200 212 Climbing FlightAware ADS-B
Sun 09:50:22 PM 47.3220 -56.5760 66° East 544 626 39,200  Level FlightAware ADS-B
Sun 09:50:59 PM 47.3540 -56.4700 66° East 544 626 39,200  Level FlightAware ADS-B
Sun 09:51:35 PM 47.3850 -56.3660 66° East 544 626 39,200  Level FlightAware ADS-B
Sun 09:52:23 PM 47.4270 -56.2270 66° East 544 626 39,200  Level FlightAware ADS-B
Sun 09:53:10 PM 47.4680 -56.0910 66° East 544 626 39,200 545 Level FlightAware ADS-B
Sun 09:53:51 PM 47.5420 -55.8060 69° East 567 652 40,000 511 Climbing FlightAware ADS-B
Sun 09:54:44 PM 47.5960 -55.6150 67° East 565 650 40,000  Level FlightAware ADS-B
Sun 09:55:24 PM 47.6370 -55.4720 67° East 566 651 40,000  Level FlightAware ADS-B
Sun 09:56:08 PM 47.6800 -55.3150 68° East 565 650 40,000  Level FlightAware ADS-B
Sun 09:56:48 PM 47.7200 -55.1730 67° East 566 651 40,000  Level FlightAware ADS-B
Sun 09:57:34 PM 47.7660 -55.0070 68° East 566 651 40,000  Level FlightAware ADS-B
Sun 09:58:15 PM 47.8020 -54.8740 68° East 565 650 40,000  Level FlightAware ADS-B
Sun 09:58:57 PM 47.8470 -54.7080 68° East 564 649 40,000  Level FlightAware ADS-B
Sun 09:59:37 PM 47.8860 -54.5640 68° East 564 649 40,000  Level FlightAware ADS-B
Sun 10:00:21 PM 47.9280 -54.4070 68° East 561 646 40,000  Level FlightAware ADS-B
Sun 10:01:03 PM 47.9690 -54.2560 68° East 559 643 40,000  Level FlightAware ADS-B
Sun 10:01:43 PM 48.0070 -54.1120 68° East 556 640 40,000  Level FlightAware ADS-B
Sun 10:02:29 PM 48.0500 -53.9490 68° East 556 640 40,000  Level FlightAware ADS-B
Sun 10:03:09 PM 48.0870 -53.8070 69° East 553 636 40,000  Level FlightAware ADS-B
Sun 10:03:49 PM 48.1230 -53.6670 69° East 552 635 40,000  Level FlightAware ADS-B
Sun 10:04:33 PM 48.1650 -53.5070 68° East 555 639 40,000  Level FlightAware ADS-B
Sun 10:05:09 PM 48.1980 -53.3780 69° East 554 638 40,000  Level FlightAware ADS-B
Sun 10:05:57 PM 48.2410 -53.2080 69° East 552 635 40,000  Level FlightAware ADS-B
Sun 10:06:38 PM 48.2780 -53.0620 69° East 554 638 40,000  Level FlightAware ADS-B
Sun 10:07:23 PM 48.3190 -52.8990 69° East 553 636 40,000  Level FlightAware ADS-B
Sun 10:08:03 PM 48.3550 -52.7560 69° East 550 633 40,000  Level FlightAware ADS-B
Sun 10:08:45 PM 48.3920 -52.6080 69° East 549 632 40,000  Level FlightAware ADS-B
Sun 10:09:25 PM 48.4280 -52.4630 69° East 552 635 40,000  Level FlightAware ADS-B
Sun 10:10:15 PM 48.4670 -52.3050 70° East 550 633 40,000  Level FlightAware ADS-B
Sun 10:10:59 PM 48.5100 -52.1260 70° East 543 625 40,000  Level FlightAware ADS-B
Sun 10:11:48 PM 48.5470 -51.9710 70° East 541 623 40,000  Level FlightAware ADS-B
Sun 10:12:29 PM 48.5860 -51.8090 70° East 537 618 40,000  Level FlightAware ADS-B
Sun 10:13:11 PM 48.6210 -51.6640 70° East 537 618 40,000  Level FlightAware ADS-B
Sun 10:13:51 PM 48.6550 -51.5200 70° East 538 619 40,000  Level FlightAware ADS-B
Sun 10:14:38 PM 48.6890 -51.3750 70° East 538 619 40,000  Level FlightAware ADS-B
Sun 10:15:14 PM 48.7150 -51.2670 70° East 538 619 40,000  Level FlightAware ADS-B
Sun 10:16:02 PM 48.7500 -51.1220 70° East 538 619 40,000  Level FlightAware ADS-B
Sun 10:16:56 PM 48.8030 -50.8850 71° East 539 620 40,000  Level FlightAware ADS-B
Sun 10:17:32 PM 48.8290 -50.7760 70° East 539 620 40,000  Level FlightAware ADS-B
Sun 10:18:17 PM 48.8690 -50.5940 71° East 539 620 40,000  Level FlightAware ADS-B
Sun 10:19:03 PM 48.9020 -50.4550 70° East 539 620 40,000  Level FlightAware ADS-B
Sun 10:19:39 PM 48.9290 -50.3450 69° East 539 620 40,000  Level FlightAware ADS-B
Sun 10:20:55 PM 48.9840 -50.1150 70° East 539 620 40,000  Level FlightAware ADS-B
Sun 10:21:29 PM 49.0080 -50.0120 70° East 539 620 40,000  Level FlightAware ADS-B
Sun 10:22:15 PM 49.0420 -49.8720 70° East 539 620 40,000  Level FlightAware ADS-B
Sun 10:22:53 PM 49.0690 -49.7560 70° East 539 620 40,000  Level FlightAware ADS-B
Sun 10:23:42 PM 49.1050 -49.6070 70° East 539 620 40,000  Level FlightAware ADS-B
Sun 10:24:18 PM 49.1310 -49.4980 70° East 539 620 40,000  Level FlightAware ADS-B
Sun 10:25:05 PM 49.1650 -49.3550 70° East 539 620 40,000  Level FlightAware ADS-B
Sun 10:25:43 PM 49.1920 -49.2390 70° East 539 620 40,000  Level FlightAware ADS-B
Sun 10:26:44 PM 49.2360 -49.0530 70° East 539 620 40,000  Level FlightAware ADS-B
Sun 10:27:19 PM 49.2620 -48.9460 70° East 539 620 40,000  Level FlightAware ADS-B
Sun 10:27:48 PM 49.1833 -48.3833 70° East 550 633 40,000  Level Gander Center
Sun 10:28:48 PM 49.2167 -48.1667 77° East 560 644 40,000  Level Gander Center
Sun 10:29:26 PM 49.2333 -48.0000 81° East 560 644 40,000  Level Gander Center
Sun 10:30:26 PM 49.2500 -47.7667 84° East 560 644 40,000  Level Gander Center
Sun 10:30:48 PM 49.2667 -47.6833 73° East 560 644 40,000  Level Gander Center
Sun 10:31:26 PM 49.2833 -47.5500 79° East 560 644 40,000  Level Gander Center
Sun 10:32:26 PM 49.3167 -47.3000 78° East 560 644 40,000  Level Gander Center
Sun 10:32:48 PM 49.3167 -47.2333 90° East 560 644 40,000  Level Gander Center
Sun 10:33:48 PM 49.3500 -46.9833 78° East 560 644 40,000  Level Gander Center
Sun 10:34:26 PM 49.3833 -46.8667 66° East 560 644 40,000  Level Gander Center
Sun 10:36:00 PM 49.4311 -46.5347 77° East  Level FlightAware Approximate
Sun 10:43:00 PM 49.5999 -45.0344 80° East  Level FlightAware Approximate
Sun 10:44:00 PM 49.6216 -44.8190 81° East  Level FlightAware Approximate
Sun 10:45:00 PM 49.6430 -44.6035 81° East  Level FlightAware Approximate
Sun 10:46:00 PM 49.6639 -44.3878 81° East  Level FlightAware Approximate
Sun 10:47:00 PM 49.6844 -44.1719 82° East  Level FlightAware Approximate
Sun 10:48:00 PM 49.7046 -43.9558 82° East  Level FlightAware Approximate
Sun 10:49:00 PM 49.7243 -43.7396 82° East  Level FlightAware Approximate
Sun 10:50:00 PM 49.7437 -43.5231 82° East  Level FlightAware Approximate
Sun 10:51:00 PM 49.7626 -43.3065 82° East  Level FlightAware Approximate
Sun 10:52:00 PM 49.7811 -43.0898 82° East  Level FlightAware Approximate
Sun 10:53:00 PM 49.7992 -42.8728 83° East  Level FlightAware Approximate
Sun 10:54:00 PM 49.8170 -42.6557 83° East  Level FlightAware Approximate
Sun 10:55:00 PM 49.8343 -42.4385 83° East  Level FlightAware Approximate
Sun 10:56:00 PM 49.8512 -42.2211 83° East  Level FlightAware Approximate
Sun 10:57:00 PM 49.8677 -42.0035 83° East  Level FlightAware Approximate
Sun 10:58:00 PM 49.8838 -41.7858 83° East  Level FlightAware Approximate
Sun 10:59:00 PM 49.8994 -41.5680 84° East  Level FlightAware Approximate
Sun 11:00:00 PM 49.9147 -41.3500 84° East  Level FlightAware Approximate
Sun 11:01:00 PM 49.9296 -41.1319 84° East  Level FlightAware Approximate
Sun 11:02:00 PM 49.9440 -40.9137 84° East  Level FlightAware Approximate
Sun 11:03:00 PM 49.9581 -40.6953 84° East  Level FlightAware Approximate
Sun 11:04:00 PM 49.9717 -40.4768 84° East  Level FlightAware Approximate
Sun 11:05:00 PM 49.9849 -40.2581 85° East  Level FlightAware Approximate
Sun 11:06:00 PM 49.9977 -40.0394 85° East  Level FlightAware Approximate
Sun 11:07:00 PM 50.0250 -39.8275 77° East  Level FlightAware Approximate
Sun 11:08:00 PM 50.0552 -39.6162 77° East  Level FlightAware Approximate
Sun 11:09:00 PM 50.0851 -39.4046 78° East  Level FlightAware Approximate
Sun 11:10:00 PM 50.1146 -39.1928 78° East  Level FlightAware Approximate
Sun 11:11:00 PM 50.1436 -38.9807 78° East  Level FlightAware Approximate
Sun 11:12:00 PM 50.1723 -38.7684 78° East  Level FlightAware Approximate
Sun 11:13:00 PM 50.2006 -38.5558 78° East  Level FlightAware Approximate
Sun 11:14:00 PM 50.2286 -38.3429 78° East  Level FlightAware Approximate
Sun 11:15:00 PM 50.2561 -38.1298 78° East  Level FlightAware Approximate
Sun 11:16:00 PM 50.2832 -37.9165 79° East  Level FlightAware Approximate
Sun 11:17:00 PM 50.3100 -37.7029 79° East  Level FlightAware Approximate
Sun 11:18:00 PM 50.3363 -37.4891 79° East  Level FlightAware Approximate
Sun 11:19:00 PM 50.3623 -37.2750 79° East  Level FlightAware Approximate
Sun 11:20:00 PM 50.3879 -37.0607 79° East  Level FlightAware Approximate
Sun 11:21:00 PM 50.4131 -36.8462 79° East  Level FlightAware Approximate
Sun 11:22:00 PM 50.4379 -36.6315 80° East  Level FlightAware Approximate
Sun 11:23:00 PM 50.4622 -36.4165 80° East  Level FlightAware Approximate
Sun 11:24:00 PM 50.4862 -36.2013 80° East  Level FlightAware Approximate
Sun 11:25:00 PM 50.5098 -35.9859 80° East  Level FlightAware Approximate
Sun 11:26:00 PM 50.5330 -35.7703 80° East  Level FlightAware Approximate
Sun 11:27:00 PM 50.5558 -35.5545 80° East  Level FlightAware Approximate
Sun 11:28:00 PM 50.5782 -35.3385 81° East  Level FlightAware Approximate
Sun 11:29:00 PM 50.6002 -35.1222 81° East  Level FlightAware Approximate
Sun 11:30:00 PM 50.6218 -34.9058 81° East  Level FlightAware Approximate
Sun 11:31:00 PM 50.6430 -34.6891 81° East  Level FlightAware Approximate
Sun 11:32:00 PM 50.6638 -34.4723 81° East  Level FlightAware Approximate
Sun 11:33:00 PM 50.6842 -34.2553 81° East  Level FlightAware Approximate
Sun 11:34:00 PM 50.7042 -34.0381 82° East  Level FlightAware Approximate
Sun 11:35:00 PM 50.7238 -33.8207 82° East  Level FlightAware Approximate
Sun 11:36:00 PM 50.7430 -33.6031 82° East  Level FlightAware Approximate
Sun 11:37:00 PM 50.7617 -33.3854 82° East  Level FlightAware Approximate
Sun 11:38:00 PM 50.7801 -33.1674 82° East  Level FlightAware Approximate
Sun 11:39:00 PM 50.7981 -32.9493 82° East  Level FlightAware Approximate
Sun 11:40:00 PM 50.8156 -32.7311 83° East  Level FlightAware Approximate
Sun 11:41:00 PM 50.8328 -32.5127 83° East  Level FlightAware Approximate
Sun 11:42:00 PM 50.8495 -32.2941 83° East  Level FlightAware Approximate
Sun 11:43:00 PM 50.8658 -32.0754 83° East  Level FlightAware Approximate
Sun 11:44:00 PM 50.8818 -31.8565 83° East  Level FlightAware Approximate
Sun 11:45:00 PM 50.8973 -31.6375 84° East  Level FlightAware Approximate
Sun 11:46:00 PM 50.9124 -31.4183 84° East  Level FlightAware Approximate
Sun 11:47:00 PM 50.9270 -31.1995 84° East  Level FlightAware Approximate
Sun 11:48:00 PM 50.9413 -30.9806 84° East  Level FlightAware Approximate
Sun 11:49:00 PM 50.9551 -30.7616 84° East  Level FlightAware Approximate
Sun 11:50:00 PM 50.9686 -30.5424 84° East  Level FlightAware Approximate
Sun 11:51:00 PM 50.9816 -30.3232 85° East  Level FlightAware Approximate
Sun 11:52:00 PM 50.9942 -30.1038 85° East  Level FlightAware Approximate
Sun 11:53:00 PM 51.0158 -29.8866 77° East  Level FlightAware Approximate
Sun 11:54:00 PM 51.0455 -29.6712 78° East  Level FlightAware Approximate
Sun 11:55:00 PM 51.0747 -29.4555 78° East  Level FlightAware Approximate
Sun 11:56:00 PM 51.1036 -29.2395 78° East  Level FlightAware Approximate
Sun 11:57:00 PM 51.1321 -29.0233 78° East  Level FlightAware Approximate
Sun 11:58:00 PM 51.1602 -28.8068 78° East  Level FlightAware Approximate
Sun 11:59:00 PM 51.1879 -28.5901 78° East  Level FlightAware Approximate
Mon 12:00:00 AM 51.2152 -28.3731 79° East  Level FlightAware Approximate
Mon 12:01:00 AM 51.2420 -28.1558 79° East  Level FlightAware Approximate
Mon 12:02:00 AM 51.2685 -27.9383 79° East  Level FlightAware Approximate
Mon 12:03:00 AM 51.2946 -27.7205 79° East  Level FlightAware Approximate
Mon 12:04:00 AM 51.3205 -27.5026 79° East  Level FlightAware Approximate
Mon 12:05:00 AM 51.3473 -27.2848 79° East  Level FlightAware Approximate
Mon 12:06:00 AM 51.3737 -27.0668 79° East  Level FlightAware Approximate
Mon 12:07:00 AM 51.3998 -26.8485 79° East  Level FlightAware Approximate
Mon 12:08:00 AM 51.4254 -26.6300 79° East  Level FlightAware Approximate
Mon 12:09:00 AM 51.4506 -26.4112 79° East  Level FlightAware Approximate
Mon 12:10:00 AM 51.4754 -26.1922 80° East  Level FlightAware Approximate
Mon 12:11:00 AM 51.4998 -25.9729 80° East  Level FlightAware Approximate
Mon 12:12:00 AM 51.5238 -25.7535 80° East  Level FlightAware Approximate
Mon 12:13:00 AM 51.5473 -25.5337 80° East  Level FlightAware Approximate
Mon 12:14:00 AM 51.5705 -25.3138 80° East  Level FlightAware Approximate
Mon 12:15:00 AM 51.5932 -25.0936 80° East  Level FlightAware Approximate
Mon 12:16:00 AM 51.6156 -24.8733 81° East  Level FlightAware Approximate
Mon 12:17:00 AM 51.6375 -24.6527 81° East  Level FlightAware Approximate
Mon 12:18:00 AM 51.6590 -24.4319 81° East  Level FlightAware Approximate
Mon 12:19:00 AM 51.6801 -24.2109 81° East  Level FlightAware Approximate
Mon 12:20:00 AM 51.7008 -23.9896 81° East  Level FlightAware Approximate
Mon 12:21:00 AM 51.7210 -23.7682 82° East  Level FlightAware Approximate
Mon 12:22:00 AM 51.7409 -23.5466 82° East  Level FlightAware Approximate
Mon 12:23:00 AM 51.7603 -23.3248 82° East  Level FlightAware Approximate
Mon 12:24:00 AM 51.7793 -23.1028 82° East  Level FlightAware Approximate
Mon 12:25:00 AM 51.7979 -22.8806 82° East  Level FlightAware Approximate
Mon 12:26:00 AM 51.8161 -22.6583 82° East  Level FlightAware Approximate
Mon 12:27:00 AM 51.8339 -22.4357 83° East  Level FlightAware Approximate
Mon 12:28:00 AM 51.8512 -22.2130 83° East  Level FlightAware Approximate
Mon 12:29:00 AM 51.8681 -21.9902 83° East  Level FlightAware Approximate
Mon 12:30:00 AM 51.8846 -21.7671 83° East  Level FlightAware Approximate
Mon 12:31:00 AM 51.9007 -21.5439 83° East  Level FlightAware Approximate
Mon 12:32:00 AM 51.9163 -21.3205 83° East  Level FlightAware Approximate
Mon 12:33:00 AM 51.9315 -21.0970 84° East  Level FlightAware Approximate
Mon 12:34:00 AM 51.9464 -20.8733 84° East  Level FlightAware Approximate
Mon 12:35:00 AM 51.9607 -20.6495 84° East  Level FlightAware Approximate
Mon 12:36:00 AM 51.9747 -20.4256 84° East  Level FlightAware Approximate
Mon 12:37:00 AM 51.9882 -20.2015 84° East  Level FlightAware Approximate
Mon 12:38:00 AM 51.9967 -19.9778 104° East  Level FlightAware Approximate
Mon 12:39:00 AM 51.9638 -19.7591 104° East  Level FlightAware Approximate
Mon 12:40:00 AM 51.9305 -19.5406 104° East  Level FlightAware Approximate
Mon 12:41:00 AM 51.8968 -19.3225 104° East  Level FlightAware Approximate
Mon 12:42:00 AM 51.8627 -19.1048 104° East  Level FlightAware Approximate
Mon 12:43:00 AM 51.8282 -18.8874 104° East  Level FlightAware Approximate
Mon 12:44:00 AM 51.7933 -18.6703 104° East  Level FlightAware Approximate
Mon 12:45:00 AM 51.7580 -18.4535 105° East  Level FlightAware Approximate
Mon 12:46:00 AM 51.7223 -18.2371 105° East  Level FlightAware Approximate
Mon 12:47:00 AM 51.6862 -18.0210 105° East  Level FlightAware Approximate
Mon 12:48:00 AM 51.6498 -17.8053 105° East  Level FlightAware Approximate
Mon 12:49:00 AM 51.6129 -17.5899 105° East  Level FlightAware Approximate
Mon 12:50:00 AM 51.5756 -17.3749 106° East  Level FlightAware Approximate
Mon 12:51:00 AM 51.5379 -17.1602 106° East  Level FlightAware Approximate
Mon 12:52:00 AM 51.4999 -16.9459 106° East  Level FlightAware Approximate
Mon 12:53:00 AM 51.4614 -16.7319 106° East  Level FlightAware Approximate
Mon 12:54:00 AM 51.4226 -16.5183 106° East  Level FlightAware Approximate
Mon 12:55:00 AM 51.3834 -16.3051 106° East  Level FlightAware Approximate
Mon 12:56:00 AM 51.3438 -16.0922 107° East  Level FlightAware Approximate
Mon 12:57:00 AM 51.3038 -15.8797 107° East  Level FlightAware Approximate
Mon 12:58:00 AM 51.2634 -15.6676 107° East  Level FlightAware Approximate
Mon 12:59:00 AM 51.2226 -15.4559 107° East  Level FlightAware Approximate
Mon 01:00:00 AM 51.1815 -15.2445 107° East  Level FlightAware Approximate
Mon 01:01:00 AM 51.1400 -15.0335 107° East  Level FlightAware Approximate
Mon 01:02:00 AM 51.1000 -14.8219 107° East  Level FlightAware Approximate
Mon 01:03:00 AM 51.0601 -14.6105 107° East  Level FlightAware Approximate
Mon 01:04:00 AM 51.0198 -14.3995 107° East  Level FlightAware Approximate
Mon 01:05:00 AM 50.9773 -14.1897 108° East  Level FlightAware Approximate
Mon 01:06:00 AM 50.9343 -13.9804 108° East  Level FlightAware Approximate
Mon 01:07:00 AM 50.8909 -13.7715 108° East  Level FlightAware Approximate
Mon 01:08:00 AM 50.8472 -13.5630 108° East  Level FlightAware Approximate
Mon 01:09:00 AM 50.8031 -13.3548 108° East  Level FlightAware Approximate
Mon 01:10:00 AM 50.7586 -13.1471 109° East  Level FlightAware Approximate
Mon 01:11:00 AM 50.7137 -12.9397 109° East  Level FlightAware Approximate
Mon 01:12:00 AM 50.6685 -12.7328 109° East  Level FlightAware Approximate
Mon 01:13:00 AM 50.6229 -12.5262 109° East  Level FlightAware Approximate
Mon 01:13:17 AM 50.7570 -11.2800 109° East 489 563 40,000  Level FlightAware ADS-B
Mon 01:14:00 AM 50.5770 -12.3201 109° East  Level FlightAware Approximate
Mon 01:14:28 AM 50.6840 -11.0750 119° Southeast 491 565 40,000  Level FlightAware ADS-B
Mon 01:15:04 AM 50.6500 -10.9790 119° Southeast 491 565 40,000  Level FlightAware ADS-B
Mon 01:15:51 AM 50.5860 -10.8090 121° Southeast 486 559 40,000  Level FlightAware ADS-B
Mon 01:16:44 AM 50.5300 -10.6530 119° Southeast 485 558 40,000  Level FlightAware ADS-B
Mon 01:17:20 AM 50.4960 -10.5590 120° Southeast 485 558 40,000  Level FlightAware ADS-B
Mon 01:18:09 AM 50.4510 -10.4300 119° Southeast 485 558 40,000  Level FlightAware ADS-B
Mon 01:18:51 AM 50.3820 -10.2570 122° Southeast 486 559 40,000  Level FlightAware ADS-B
Mon 01:19:33 AM 50.3420 -10.1480 120° Southeast 486 559 40,000  Level FlightAware ADS-B
Mon 01:20:16 AM 50.2860 -10.0030 121° Southeast 40,000  Level FlightAware ADS-B
Mon 01:21:08 AM 50.2240 -9.8390 121° Southeast 486 559 40,000  Level FlightAware ADS-B
Mon 01:21:55 AM 50.1710 -9.6990 121° Southeast 487 560 40,000  Level FlightAware ADS-B
Mon 01:22:35 AM 50.1260 -9.5820 121° Southeast 487 560 40,000  Level FlightAware ADS-B
Mon 01:23:17 AM 50.0760 -9.4540 121° Southeast 487 560 40,000  Level FlightAware ADS-B
Mon 01:23:59 AM 50.0270 -9.3260 121° Southeast 486 559 40,000  Level FlightAware ADS-B
Mon 01:24:40 AM 49.9810 -9.2070 121° Southeast 482 555 40,000  Level FlightAware ADS-B
Mon 01:25:18 AM 49.9400 -9.1030 121° Southeast 474 545 40,000  Level FlightAware ADS-B
Mon 01:25:50 AM 49.8982 -8.9975 121° Southeast 482 555 40,000  Level FlightAware UK
Mon 01:26:04 AM 49.8840 -8.9600 121° Southeast 477 549 40,000  Level FlightAware ADS-B
Mon 01:26:20 AM 49.8639 -8.9100 121° Southeast 480 552 40,000  Level FlightAware UK
Mon 01:26:50 AM 49.8310 -8.8260 121° Southeast 477 549 40,000  Level FlightAware ADS-B
Mon 01:27:20 AM 49.7951 -8.7353 121° Southeast 478 550 40,000  Level FlightAware UK
Mon 01:27:30 AM 49.7860 -8.7100 121° Southeast 480 552 40,000  Level FlightAware ADS-B
Mon 01:27:50 AM 49.7604 -8.6478 121° Southeast 482 555 40,000  Level FlightAware UK
Mon 01:28:06 AM 49.7450 -8.6080 121° Southeast 481 554 40,000  Level FlightAware ADS-B
Mon 01:28:50 AM 49.6905 -8.4727 121° Southeast 482 555 40,000  Level FlightAware UK
Mon 01:28:53 AM 49.6890 -8.4690 121° Southeast 40,000  Level FlightAware ADS-B
Mon 01:29:20 AM 49.6553 -8.3850 121° Southeast 482 555 40,000  Level FlightAware UK
Mon 01:29:50 AM 49.6201 -8.2971 122° Southeast 486 559 40,000  Level FlightAware UK
Mon 01:29:52 AM 49.6200 -8.2970 122° Southeast 483 556 40,000  Level FlightAware ADS-B
Mon 01:30:20 AM 49.5846 -8.2095 122° Southeast 484 557 40,000  Level FlightAware UK
Mon 01:30:34 AM 49.5710 -8.1750 122° Southeast 481 554 40,000  Level FlightAware ADS-B
Mon 01:30:50 AM 49.5493 -8.1221 122° Southeast 484 557 40,000  Level FlightAware UK
Mon 01:31:16 AM 49.5270 -8.0420 122° Southeast 481 554 40,000  Level FlightAware ADS-B
Mon 01:31:50 AM 49.5042 -7.9283 122° Southeast 482 555 40,000  Level FlightAware UK
Mon 01:31:57 AM 49.5030 -7.9130 122° Southeast 483 556 40,000  Level FlightAware ADS-B
Mon 01:32:20 AM 49.4956 -7.8261 122° Southeast 480 552 40,000  Level FlightAware UK
Mon 01:32:31 AM 49.4960 -7.7950 122° Southeast 486 559 40,000  Level FlightAware ADS-B
Mon 01:32:50 AM 49.4938 -7.7228 122° Southeast 482 555 40,000  Level FlightAware UK
Mon 01:33:21 AM 49.4920 -7.6230 122° Southeast 488 562 40,000  Level FlightAware ADS-B
Mon 01:33:50 AM 49.4883 -7.5153 122° Southeast 478 550 40,000  Level FlightAware UK
Mon 01:34:03 AM 49.4880 -7.4770 122° Southeast 491 565 40,000  Level FlightAware ADS-B
Mon 01:34:20 AM 49.4855 -7.4111 122° Southeast 482 555 40,000  Level FlightAware UK
Mon 01:34:43 AM 49.4840 -7.3320 122° Southeast 493 567 40,000  Level FlightAware ADS-B
Mon 01:35:20 AM 49.4805 -7.2013 122° Southeast 486 559 40,000  Level FlightAware UK
Mon 01:35:39 AM 49.4810 -7.2110 122° Southeast 492 566 40,000  Level FlightAware ADS-B
Mon 01:35:56 AM 49.4768 -7.0754 122° Southeast 484 557 40,000  Level FlightAware UK
Mon 01:36:24 AM 49.4740 -6.9880 122° Southeast 491 565 40,000  Level FlightAware ADS-B
Mon 01:36:57 AM 49.4703 -6.8656 122° Southeast 482 555 40,000  Level FlightAware UK
Mon 01:37:04 AM 49.4700 -6.8540 122° Southeast 490 564 40,000  Level FlightAware ADS-B
Mon 01:37:27 AM 49.4671 -6.7613 122° Southeast 482 555 40,000  Level FlightAware UK
Mon 01:37:44 AM 49.4650 -6.7060 122° Southeast 491 565 40,000  Level FlightAware ADS-B
Mon 01:38:24 AM 49.4610 -6.5660 122° Southeast 492 566 40,000  Level FlightAware ADS-B
Mon 01:38:27 AM 49.4602 -6.5532 122° Southeast 484 557 40,000  Level FlightAware UK
Mon 01:38:57 AM 49.4567 -6.4489 122° Southeast 486 559 40,000  Level FlightAware UK
Mon 01:39:09 AM 49.4560 -6.4110 122° Southeast 490 564 40,000  Level FlightAware ADS-B
Mon 01:39:27 AM 49.4532 -6.3447 122° Southeast 482 555 40,000  Level FlightAware UK
Mon 01:39:50 AM 49.4510 -6.2770 122° Southeast 488 562 40,000  Level FlightAware ADS-B
Mon 01:40:27 AM 49.4458 -6.1370 122° Southeast 484 557 40,000  Level FlightAware UK
Mon 01:40:30 AM 49.4460 -6.1410 122° Southeast 487 560 40,000  Level FlightAware ADS-B
Mon 01:40:57 AM 49.4418 -6.0336 122° Southeast 476 548 40,000  Level FlightAware UK
Mon 01:41:15 AM 49.4400 -5.9790 122° Southeast 478 550 40,000  Level FlightAware ADS-B
Mon 01:41:55 AM 49.4340 -5.8390 94° East 478 550 40,000  Level FlightAware ADS-B
Mon 01:42:35 AM 49.4290 -5.7050 94° East 481 554 40,000  Level FlightAware ADS-B
Mon 01:42:39 AM 49.4284 -5.6889 94° East 472 543 40,000  Level FlightAware UK
Mon 01:43:09 AM 49.4241 -5.5868 94° East 472 543 40,000  Level FlightAware UK
Mon 01:43:22 AM 49.4230 -5.5540 94° East 483 556 40,000  Level FlightAware ADS-B
Mon 01:43:39 AM 49.4198 -5.4845 94° East 472 543 40,000  Level FlightAware UK
Mon 01:44:05 AM 49.4170 -5.4160 94° East 484 557 40,000  Level FlightAware ADS-B
Mon 01:44:45 AM 49.4100 -5.2587 94° East 474 545 40,000  Level FlightAware UK
Mon 01:44:45 AM 49.4100 -5.2670 94° East 485 558 40,000  Level FlightAware ADS-B
Mon 01:45:27 AM 49.4036 -5.1148 94° East 474 545 40,000  Level FlightAware UK
Mon 01:45:30 AM 49.4030 -5.1140 94° East 485 558 40,000  Level FlightAware ADS-B
Mon 01:45:57 AM 49.3987 -5.0113 94° East 472 543 40,000  Level FlightAware UK
Mon 01:46:06 AM 49.3980 -4.9900 94° East 485 558 40,000  Level FlightAware ADS-B
Mon 01:46:27 AM 49.3938 -4.9086 94° East 472 543 40,000  Level FlightAware UK
Mon 01:46:51 AM 49.3900 -4.8290 94° East 490 564 40,000  Level FlightAware ADS-B
Mon 01:47:32 AM 49.3830 -4.6930 94° East 481 554 40,000  Level FlightAware ADS-B
Mon 01:48:09 AM 49.3770 -4.5604 94° East 466 536 40,000  Level FlightAware UK
Mon 01:48:17 AM 49.3750 -4.5380 94° East 473 544 40,000  Level FlightAware ADS-B
Mon 01:48:39 AM 49.3717 -4.4609 94° East 462 532 40,000  Level FlightAware UK
Mon 01:48:58 AM 49.3690 -4.4040 94° East 472 543 40,000  Level FlightAware ADS-B
Mon 01:49:39 AM 49.3611 -4.2593 94° East 466 536 40,000  Level FlightAware UK
Mon 01:49:41 AM 49.3610 -4.2690 94° East 481 554 40,000  Level FlightAware ADS-B
Mon 01:50:09 AM 49.3560 -4.1569 94° East 472 543 40,000  Level FlightAware UK
Mon 01:50:29 AM 49.3580 -4.1060 94° East 490 564 40,000  Level FlightAware ADS-B
Mon 01:51:09 AM 49.3611 -3.9486 94° East 470 541 40,000  Level FlightAware UK
Mon 01:51:17 AM 49.3610 -3.9240 94° East 487 560 40,000  Level FlightAware ADS-B
Mon 01:51:39 AM 49.3628 -3.8447 94° East 470 541 40,000  Level FlightAware UK
Mon 01:51:59 AM 49.3640 -3.7800 94° East 482 555 40,000  Level FlightAware ADS-B
Mon 01:52:39 AM 49.3660 -3.6405 94° East 468 539 40,000  Level FlightAware UK
Mon 01:52:42 AM 49.3660 -3.6350 94° East 476 548 40,000  Level FlightAware ADS-B
Mon 01:53:09 AM 49.3674 -3.5401 94° East 464 534 40,000  Level FlightAware UK
Mon 01:53:22 AM 49.3680 -3.5010 94° East 473 544 40,000  Level FlightAware ADS-B
Mon 01:53:45 AM 49.3689 -3.4205 94° East 466 536 40,000  Level FlightAware UK
Mon 01:54:04 AM 49.3690 -3.3620 94° East 471 542 40,000  Level FlightAware ADS-B
Mon 01:54:46 AM 49.3713 -3.2203 94° East 462 532 40,000  Level FlightAware UK
Mon 01:54:48 AM 49.3710 -3.2140 94° East 469 540 40,000  Level FlightAware ADS-B
Mon 01:55:16 AM 49.3723 -3.1210 94° East 460 529 40,000  Level FlightAware UK
Mon 01:55:30 AM 49.3730 -3.0740 94° East 469 540 40,000  Level FlightAware ADS-B
Mon 01:55:46 AM 49.3732 -3.0217 94° East 460 529 40,000  Level FlightAware UK
Mon 01:56:12 AM 49.3740 -2.9340 94° East 469 540 40,000  Level FlightAware ADS-B
Mon 01:56:56 AM 49.3750 -2.7910 89° East 469 540 40,000  Level FlightAware ADS-B
Mon 01:57:34 AM 49.3757 -2.6627 89° East 456 525 40,000  Level FlightAware UK
Mon 01:57:36 AM 49.3760 -2.6570 89° East 470 541 40,000  Level FlightAware ADS-B
Mon 01:58:04 AM 49.3760 -2.5632 89° East 460 529 40,000  Level FlightAware UK
Mon 01:58:16 AM 49.3760 -2.5260 89° East 469 540 40,000  Level FlightAware ADS-B
Mon 01:58:34 AM 49.3764 -2.4630 89° East 460 529 40,000  Level FlightAware UK
Mon 01:58:58 AM 49.3770 -2.3830 89° East 469 540 40,000  Level FlightAware ADS-B
Mon 01:59:34 AM 49.3774 -2.2638 89° East 456 525 40,000  Level FlightAware UK
Mon 01:59:44 AM 49.3770 -2.2310 89° East 469 540 40,000  Level FlightAware ADS-B
Mon 02:00:10 AM 49.3777 -2.1445 89° East 452 520 40,000  Level FlightAware UK
Mon 02:00:22 AM 49.3770 -2.1060 89° East 473 544 40,000  Level FlightAware ADS-B
Mon 02:00:40 AM 49.3778 -2.0437 89° East 456 525 40,000  Level FlightAware UK
Mon 02:00:55 AM 49.3774 -1.9947 89° East 481 554 40,000  Level FlightAware ADS-B
Mon 02:01:17 AM 49.3776 -1.9196 89° East 460 529 40,000  Level FlightAware UK
Mon 02:01:52 AM 49.3773 -1.7980 89° East 483 556 40,000 -600 Level FlightAware ADS-B
Mon 02:02:17 AM 49.3773 -1.7132 89° East 460 529 39,400 -1,459 Descending FlightAware UK
Mon 02:02:29 AM 49.3770 -1.6722 89° East 492 566 39,100 -1,833 Descending FlightAware ADS-B
Mon 02:02:53 AM 49.3772 -1.5891 89° East 476 548 38,300 -1,600 Descending FlightAware UK
Mon 02:02:59 AM 49.3767 -1.5670 89° East 491 565 38,300 -1,167 Level FlightAware ADS-B
Mon 02:03:29 AM 49.3762 -1.4638 90° East 482 555 37,600 -1,500 Descending FlightAware ADS-B
Mon 02:03:59 AM 49.3758 -1.3625 90° East 464 534 36,800 -1,538 Descending FlightAware UK
Mon 02:04:08 AM 49.3760 -1.3360 90° East 494 568 36,600 -1,875 Descending FlightAware ADS-B
Mon 02:04:47 AM 49.3745 -1.1930 90° East 474 545 35,300 -1,674 Descending FlightAware UK
Mon 02:04:51 AM 49.3750 -1.1940 90° East 491 565 35,400 -1,400 Climbing FlightAware ADS-B
Mon 02:05:17 AM 49.3744 -1.0908 90° East 470 541 34,600 -2,509 Descending FlightAware UK
Mon 02:05:46 AM 49.3730 -0.9970 90° East 483 556 33,100 -2,833 Descending FlightAware ADS-B
Mon 02:06:29 AM 49.3720 -0.8460 91° East 484 557 31,200 -2,506 Descending FlightAware ADS-B
Mon 02:07:05 AM 49.3706 -0.7209 91° East 470 541 29,800 -2,108 Descending FlightAware UK
Mon 02:07:06 AM 49.3710 -0.7240 91° East 480 552 29,900 -1,600 Climbing FlightAware ADS-B
Mon 02:07:35 AM 49.3695 -0.6190 91° East 460 529 29,000 -1,610 Descending FlightAware UK
Mon 02:07:47 AM 49.3690 -0.5810 91° East 471 542 28,800 -1,333 Descending FlightAware ADS-B
Mon 02:08:11 AM 49.3680 -0.4997 91° East 458 527 28,200 -1,021 Descending FlightAware UK
Mon 02:08:34 AM 49.3670 -0.4270 91° East 472 543 28,000 -190 Descending FlightAware ADS-B
Mon 02:09:14 AM 49.3650 -0.2970 91° East 453 521 28,000 -176 Level FlightAware ADS-B
Mon 02:09:42 AM 49.3607 -0.2077 91° East 418 481 27,800 -286 Descending FlightAware UK
Mon 02:09:56 AM 49.3570 -0.1700 91° East 420 483 27,800 -429 Level FlightAware ADS-B
Mon 02:10:24 AM 49.3492 -0.0866 91° East 394 453 27,500 -279 Descending FlightAware UK
Mon 02:10:39 AM 49.3460 -0.0460 91° East 393 452 27,600 -333 Climbing FlightAware ADS-B
Mon 02:11:00 AM 49.3513 0.0123 91° East 380 437 27,300 -1,053 Descending FlightAware UK
Mon 02:11:36 AM 49.3718 0.1122 72° East 376 433 26,600 -960 Descending FlightAware UK
Mon 02:11:50 AM 49.3770 0.1370 72° East 403 464 26,500 -1,167 Descending FlightAware ADS-B
Mon 02:12:12 AM 49.3926 0.2106 72° East 372 428 25,900 -1,588 Descending FlightAware UK
Mon 02:12:24 AM 49.3991 0.2425 72° East 400 460 25,600 -1,313 Descending FlightAware ADS-B
Mon 02:12:44 AM 49.4104 0.2965 72° East 400 460 25,200 -1,294 Descending FlightAware ADS-B
Mon 02:13:15 AM 49.4276 0.3786 72° East 396 456 24,500 -1,174 Descending FlightAware ADS-B
Mon 02:13:30 AM 49.4362 0.4198 72° East 362 417 24,300 -1,125 Descending FlightAware UK
Mon 02:13:47 AM 49.4447 0.4628 72° East 393 452 23,900 -1,404 Descending FlightAware ADS-B
Mon 02:14:17 AM 49.4613 0.5432 72° East 393 452 23,200 -1,347 Descending FlightAware ADS-B
Mon 02:14:36 AM 49.4720 0.5945 72° East 356 410 22,800 -980 Descending FlightAware UK
Mon 02:15:06 AM 49.4883 0.6739 72° East 354 407 22,400 -600 Descending FlightAware UK
Mon 02:15:16 AM 49.4900 0.6840 72° East 382 440 22,400 -1,655 Level FlightAware ADS-B
Mon 02:15:35 AM 49.5009 0.7478 75° East 393 452 21,600 -2,129 Descending FlightAware ADS-B
Mon 02:15:47 AM 49.5038 0.7796 82° East 385 443 21,300 -1,286 Descending FlightAware ADS-B
Mon 02:16:17 AM 49.5101 0.8601 83° East 379 436 20,700 -1,463 Descending FlightAware ADS-B
Mon 02:16:28 AM 49.5107 0.8920 88° East 377 434 20,300 -1,846 Descending FlightAware ADS-B
Mon 02:16:43 AM 49.5098 0.9303 88° East 342 394 19,900 -968 Descending FlightAware UK
Mon 02:16:59 AM 49.5091 0.9734 88° East 374 430 19,800 -1,038 Descending FlightAware ADS-B
Mon 02:17:35 AM 49.5071 1.0645 92° East 353 406 19,000 -1,676 Descending FlightAware ADS-B
Mon 02:18:07 AM 49.5059 1.1434 91° East 350 403 17,900 -2,156 Descending FlightAware ADS-B
Mon 02:18:39 AM 49.5048 1.2241 91° East 341 392 16,700 -2,129 Descending FlightAware ADS-B
Mon 02:19:09 AM 49.5031 1.2970 92° East 343 395 15,700 -1,696 Descending FlightAware ADS-B
Mon 02:19:25 AM 49.5021 1.3340 92° East 341 392 15,400 -1,043 Descending FlightAware ADS-B
Mon 02:19:32 AM 49.5004 1.3516 98° East 334 384 15,300 -1,200 Descending FlightAware ADS-B
Mon 02:19:40 AM 49.4965 1.3677 110° East 324 373 15,100 -1,500 Descending FlightAware ADS-B
Mon 02:19:44 AM 49.4930 1.3766 121° Southeast 313 360 15,000 -1,200 Descending FlightAware ADS-B
Mon 02:19:55 AM 49.4827 1.3936 133° Southeast 297 342 14,800 -1,667 Descending FlightAware ADS-B
Mon 02:20:02 AM 49.4750 1.4026 143° Southeast 289 333 14,500 -2,143 Descending FlightAware ADS-B
Mon 02:20:09 AM 49.4681 1.4094 147° Southeast 284 327 14,300 -2,462 Descending FlightAware ADS-B
Mon 02:20:41 AM 49.4340 1.4420 148° Southeast 270 311 12,900 -2,651 Descending FlightAware ADS-B
Mon 02:20:52 AM 49.4212 1.4548 147° Southeast 280 322 12,400 -2,571 Descending FlightAware ADS-B
Mon 02:21:23 AM 49.3867 1.4876 148° Southeast 281 323 11,100 -2,027 Descending FlightAware ADS-B
Mon 02:22:06 AM 49.3410 1.5280 150° Southeast 260 299 9,900 -1,754 Descending FlightAware ADS-B
Mon 02:22:28 AM 49.3155 1.5486 152° Southeast 260 299 9,200 -1,102 Descending FlightAware ADS-B
Mon 02:22:55 AM 49.2877 1.5711 152° Southeast 286 329 9,000 -364 Descending FlightAware UK
Mon 02:23:01 AM 49.2840 1.5730 152° Southeast 259 298 9,000  Level FlightAware ADS-B
Mon 02:23:16 AM 49.2654 1.5882 152° Southeast 261 300 9,000  Level FlightAware ADS-B
Mon 02:23:31 AM 49.2489 1.6014 152° Southeast 261 300 9,000  Level FlightAware ADS-B
Mon 02:23:49 AM 49.2302 1.6166 152° Southeast 259 298 9,000  Level FlightAware ADS-B
Mon 02:24:05 AM 49.2130 1.6305 152° Southeast 244 281 9,000  Level FlightAware ADS-B
Mon 02:24:21 AM 49.1976 1.6433 152° Southeast 236 272 9,000  Level FlightAware ADS-B
Mon 02:24:40 AM 49.1805 1.6580 151° Southeast 225 259 9,000  Level FlightAware ADS-B
Mon 02:24:56 AM 49.1662 1.6701 151° Southeast 225 259 9,000  Level FlightAware ADS-B
Mon 02:25:11 AM 49.1522 1.6820 151° Southeast 224 258 9,000  Level FlightAware ADS-B
Mon 02:25:24 AM 49.1406 1.6919 151° Southeast 223 257 9,000  Level FlightAware ADS-B
Mon 02:25:33 AM 49.1331 1.6998 145° Southeast 224 258 9,000  Level FlightAware ADS-B
Mon 02:25:36 AM 49.1306 1.7028 142° Southeast 225 259 9,000 -261 Level FlightAware ADS-B
Mon 02:25:56 AM 49.1146 1.7225 141° Southeast 228 262 8,900 -800 Descending FlightAware ADS-B
Mon 02:26:21 AM 49.0945 1.7492 139° Southeast 229 264 8,400 -1,116 Descending FlightAware ADS-B
Mon 02:26:39 AM 49.0831 1.7736 125° Southeast 235 270 8,100 -686 Descending FlightAware ADS-B
Mon 02:26:56 AM 49.0729 1.7967 124° Southeast 231 266 8,000 -182 Descending FlightAware ADS-B
Mon 02:27:12 AM 49.0639 1.8177 123° Southeast 231 266 8,000  Level FlightAware ADS-B
Mon 02:27:32 AM 49.0515 1.8462 124° Southeast 237 273 8,000 -343 Level FlightAware ADS-B
Mon 02:27:47 AM 49.0423 1.8665 125° Southeast 234 269 7,800 -774 Descending FlightAware ADS-B
Mon 02:28:03 AM 49.0326 1.8877 125° Southeast 223 257 7,600 -968 Descending FlightAware ADS-B
Mon 02:28:18 AM 49.0236 1.9063 126° Southeast 216 249 7,300 -1,304 Descending FlightAware ADS-B
Mon 02:28:26 AM 49.0191 1.9155 127° Southeast 215 247 7,100 -1,714 Descending FlightAware ADS-B
Mon 02:28:46 AM 49.0069 1.9388 129° Southeast 217 250 6,500 -1,588 Descending FlightAware ADS-B
Mon 02:29:00 AM 48.9979 1.9556 129° Southeast 219 252 6,200 -828 Descending FlightAware ADS-B
Mon 02:29:15 AM 48.9879 1.9741 129° Southeast 218 251 6,100 -444 Descending FlightAware ADS-B
Mon 02:29:27 AM 48.9817 1.9899 121° Southeast 216 249 6,000 -375 Descending FlightAware ADS-B
Mon 02:29:31 AM 48.9803 1.9950 112° Southeast 217 250 6,000 -947 Level FlightAware ADS-B
Mon 02:29:46 AM 48.9755 2.0167 109° East 219 252 5,700 -1,111 Descending FlightAware ADS-B
Mon 02:29:58 AM 48.9717 2.0345 108° East 213 245 5,500 -1,250 Descending FlightAware ADS-B
Mon 02:30:10 AM 48.9684 2.0508 107° East 214 246 5,200 -1,412 Descending FlightAware ADS-B
Mon 02:30:15 AM 48.9670 2.0586 105° East 213 245 5,100 -667 Descending FlightAware ADS-B
Mon 02:30:19 AM 48.9663 2.0638 102° East 216 249 5,100  Level FlightAware ADS-B
Mon 02:30:23 AM 48.9659 2.0708 95° East 219 252 5,100  Level FlightAware ADS-B
Mon 02:30:29 AM 48.9659 2.0801 90° East 220 253 5,100  Level FlightAware ADS-B
Mon 02:30:44 AM 48.9672 2.1037 85° East 223 257 5,100  Level FlightAware ADS-B
Mon 02:31:00 AM 48.9688 2.1274 84° East 225 259 5,100  Level FlightAware ADS-B
Mon 02:31:05 AM 48.9693 2.1361 85° East 223 257 5,100  Level FlightAware ADS-B
Mon 02:31:22 AM 48.9707 2.1613 85° East 204 235 5,100  Level FlightAware ADS-B
Mon 02:31:37 AM 48.9719 2.1824 85° East 196 226 5,100 200 Level FlightAware ADS-B
Mon 02:31:52 AM 48.9729 2.2015 85° East 193 222 5,200 -200 Climbing FlightAware ADS-B
Mon 02:32:07 AM 48.9740 2.2222 85° East 195 224 5,000 -1,000 Descending FlightAware ADS-B
Mon 02:32:16 AM 48.9748 2.2351 85° East 194 223 4,800 -1,385 Descending FlightAware ADS-B
Mon 02:32:33 AM 48.9760 2.2583 85° East 197 227 4,400 -1,241 Descending FlightAware ADS-B
Mon 02:32:45 AM 48.9771 2.2745 84° East 193 222 4,200 -1,333 Descending FlightAware ADS-B
Mon 02:32:51 AM 48.9774 2.2828 87° East 192 221 4,000 -1,385 Descending FlightAware ADS-B
Mon 02:32:58 AM 48.9778 2.2910 86° East 189 217 3,900 -818 Descending FlightAware ADS-B
Mon 02:33:13 AM 48.9790 2.3112 85° East 183 211 3,700 -909 Descending FlightAware ADS-B
Mon 02:33:31 AM 48.9803 2.3337 85° East 173 199 3,400 -1,059 Descending FlightAware ADS-B
Mon 02:33:47 AM 48.9814 2.3530 85° East 171 197 3,100 -833 Descending FlightAware ADS-B
Mon 02:34:07 AM 48.9826 2.3767 86° East 167 192 2,900 -800 Descending FlightAware ADS-B
Mon 02:34:32 AM 48.9842 2.4045 85° East 160 184 2,500 -894 Descending FlightAware ADS-B
Mon 02:34:54 AM 48.9855 2.4267 85° East 152 175 2,200 -667 Descending FlightAware ADS-B
Mon 02:35:26 AM 48.9870 2.4550 85° East 132 152 1,900 -679 Descending FlightAware ADS-B
Mon 02:35:47 AM 48.9881 2.4759 85° East 130 150 1,600 -789 Descending FlightAware ADS-B
Mon 02:36:04 AM 48.9889 2.4914 85° East 128 147 1,400 -686 Descending FlightAware ADS-B
Mon 02:36:22 AM 48.9898 2.5078 85° East 128 147 1,200 -667 Descending FlightAware ADS-B
Mon 02:36:40 AM 48.9906 2.5235 86° East 128 147 1,000 -686 Descending FlightAware ADS-B
Mon 02:36:57 AM 48.9916 2.5398 85° East 130 150 800 -600 Descending FlightAware ADS-B
Mon 02:37:10 AM 48.9922 2.5517 86° East 135 155 700 -692 Descending FlightAware ADS-B
Mon 02:37:23 AM 48.9928 2.5636 86° East 136 157 500 -923 Descending FlightAware ADS-B
Mon 02:38:01 AM 48.9940 2.5900 86° East 70 81 -789 Descending FlightAware ADS-B
Mon 02:38:26 AM 48.9950 2.5990 80° East 25 29  Level FlightAware ADS-B
Mon 02:38:41 AM 48.9960 2.6000 33° Northeast 21 24  Level FlightAware ADS-B
Mon 02:39:06 AM 48.9980 2.5990 342° North 17 20  Level FlightAware ADS-B
Mon 02:39:31 AM 49.0000 2.6010 33° Northeast 10 12  Level FlightAware ADS-B
Mon 02:40:06 AM 49.0010 2.5990 307° West 12 14  Level FlightAware ADS-B
Mon 02:40:31 AM 49.0010 2.5970 270° West 17 20  Level FlightAware ADS-B
Mon 02:41:01 AM 49.0010 2.5930 270° West 23 26  Level FlightAware ADS-B
Mon 02:41:26 AM 49.0000 2.5880 253° West 28 32  Level FlightAware ADS-B
Mon 02:41:56 AM 49.0000 2.5830 270° West 20 23  Level FlightAware ADS-B
Mon 02:42:26 AM 49.0000 2.5780 270° West 21 24  Level FlightAware ADS-B
Mon 02:42:51 AM 49.0000 2.5740 270° West 19 22  Level FlightAware ADS-B
Mon 02:43:16 AM 48.9990 2.5710 243° Southwest 18 21  Level FlightAware ADS-B
Mon 02:43:41 AM 48.9990 2.5680 270° West 14 16  Level FlightAware ADS-B
Mon 02:43:56 AM 48.9990 2.5670 270° West 15 17  Level FlightAware ADS-B
Mon 02:44:26 AM 48.9990 2.5630 270° West 16 18  Level FlightAware ADS-B
Mon 02:45:11 AM 48.9990 2.5580 270° West 17 20  Level FlightAware ADS-B
Mon 02:45:41 AM 49.0000 2.5550 297° West 17 20  Level FlightAware ADS-B
Mon 02:46:06 AM 49.0020 2.5550 360° North 10 12  Level FlightAware ADS-B
Mon 02:46:46 AM 49.0040 2.5530 327° Northwest 13 15  Level FlightAware ADS-B
Mon 02:48:46 AM 49.0100 2.5510 62° Northeast 16 18  Level FlightAware ADS-B
Mon 02:50:46 AM 49.0180 2.5480 62° Northeast 14 16  Level FlightAware ADS-B
Mon 02:50:56 AM 49.0180 2.5470 270° West 18 21  Level FlightAware ADS-B
Mon 02:51:31 AM 49.0180 2.5420 270° West 18 21  Level FlightAware ADS-B
Mon 02:51:57 AM 49.0170 2.5380 249° West 20 23  Level FlightAware ADS-B
Mon 02:52:11 AM 49.0160 2.5370 213° Southwest 20 23  Level FlightAware ADS-B

Login

Don't have an account? Register now (free) for customized features, flight alerts, and more!